createdAt,value
2018-01-12T00:02:06.705Z,32.80
2018-01-12T00:04:34.971Z,23.13
2018-01-12T00:07:02.486Z,27.13
2018-01-12T00:09:30.380Z,23.30
2018-01-12T00:11:57.890Z,30.67
2018-01-12T00:14:25.782Z,27.20
2018-01-12T00:16:53.307Z,22.57
2018-01-12T00:19:20.829Z,22.43
2018-01-12T00:21:48.331Z,22.07
2018-01-12T00:24:15.848Z,26.20
2018-01-12T00:26:43.746Z,20.10
2018-01-12T00:29:11.655Z,21.90
2018-01-12T00:31:39.547Z,22.97
2018-01-12T00:34:07.080Z,20.83
2018-01-12T00:36:35.074Z,20.23
2018-01-12T00:39:02.599Z,30.17
2018-01-12T00:41:30.509Z,25.07
2018-01-12T00:43:58.031Z,33.50
2018-01-12T00:46:25.522Z,32.23
2018-01-12T00:48:53.449Z,20.17
2018-01-12T00:51:21.353Z,21.57
2018-01-12T00:53:48.856Z,29.23
2018-01-12T00:56:16.382Z,30.60
2018-01-12T00:58:44.287Z,23.97
2018-01-12T01:01:11.802Z,24.57
2018-01-12T01:03:39.298Z,24.40
2018-01-12T01:06:06.815Z,29.67
2018-01-12T01:08:34.737Z,24.57
2018-01-12T01:11:02.650Z,33.20
2018-01-12T01:13:30.153Z,23.67
2018-01-12T01:15:58.015Z,23.03
2018-01-12T01:18:25.508Z,34.77
2018-01-12T01:20:53.407Z,25.37
2018-01-12T01:23:21.319Z,24.03
2018-01-12T01:25:49.947Z,19.97
2018-01-12T01:28:17.863Z,19.53
2018-01-12T01:30:46.118Z,23.63
2018-01-12T01:33:13.638Z,24.43
2018-01-12T01:38:48.178Z,26.23
2018-01-12T01:41:16.070Z,21.77
2018-01-12T01:43:43.979Z,23.20
2018-01-12T01:46:11.465Z,25.00
2018-01-12T01:48:41.313Z,22.07
2018-01-12T01:51:08.810Z,19.10
2018-01-12T01:53:36.712Z,25.10
2018-01-12T01:56:04.622Z,26.30
2018-01-12T01:58:32.110Z,24.43
2018-01-12T02:01:00.038Z,24.37
2018-01-12T02:03:27.942Z,19.90
2018-01-12T02:05:55.869Z,20.80
2018-01-12T02:08:24.146Z,26.50
2018-01-12T02:10:52.070Z,30.20
2018-01-12T02:13:19.578Z,29.47
2018-01-12T02:15:47.489Z,23.07
2018-01-12T02:18:15.019Z,25.00
2018-01-12T02:20:42.912Z,29.63
2018-01-12T02:23:10.434Z,29.47
2018-01-12T02:25:38.336Z,19.87
2018-01-12T02:28:06.264Z,29.83
2018-01-12T02:30:34.582Z,29.00
2018-01-12T02:33:02.102Z,37.30
2018-01-12T02:35:30.016Z,28.20
2018-01-12T02:37:57.537Z,41.07
2018-01-12T02:40:25.617Z,30.30
2018-01-12T02:42:53.154Z,29.70
2018-01-12T02:45:20.659Z,34.13
2018-01-12T02:47:48.180Z,30.57
2018-01-12T02:50:16.083Z,30.57
2018-01-12T02:52:44.373Z,28.20
2018-01-12T02:55:11.876Z,30.60
2018-01-12T02:57:39.782Z,39.60
2018-01-12T03:00:07.302Z,33.60
2018-01-12T03:02:35.568Z,24.13
2018-01-12T03:05:03.477Z,28.20
2018-01-12T03:07:31.735Z,23.20
2018-01-12T03:09:59.255Z,24.53
2018-01-12T03:12:27.185Z,29.10
2018-01-12T03:14:54.887Z,28.00
2018-01-12T03:17:22.384Z,32.53
2018-01-12T03:19:50.306Z,35.40
2018-01-12T03:22:18.207Z,33.27
2018-01-12T03:24:45.739Z,29.10
2018-01-12T03:27:13.238Z,28.77
2018-01-12T03:29:41.505Z,33.07
2018-01-12T03:32:09.418Z,30.40
2018-01-12T03:34:37.705Z,32.47
2018-01-12T03:37:05.221Z,34.07
2018-01-12T03:39:32.726Z,36.90
2018-01-12T03:42:00.647Z,29.10
2018-01-12T03:44:28.166Z,25.70
2018-01-12T03:46:56.075Z,30.70
2018-01-12T03:49:24.816Z,29.07
2018-01-12T03:51:52.840Z,33.03
2018-01-12T03:54:20.726Z,26.60
2018-01-12T03:56:48.246Z,35.40
2018-01-12T03:59:16.132Z,29.93
2018-01-12T04:01:44.018Z,34.70
2018-01-12T04:04:11.541Z,24.17
2018-01-12T04:06:39.815Z,33.37
2018-01-12T04:09:07.339Z,29.93
2018-01-12T04:11:34.847Z,31.07
2018-01-12T04:14:02.766Z,23.47
2018-01-12T04:16:30.666Z,29.90
2018-01-12T04:18:58.188Z,25.30
2018-01-12T04:21:25.769Z,29.40
2018-01-12T04:23:53.688Z,26.07
2018-01-12T04:26:21.586Z,32.23
2018-01-12T04:28:49.488Z,25.03
2018-01-12T04:31:17.394Z,21.90
2018-01-12T04:33:45.292Z,24.87
2018-01-12T04:36:12.829Z,27.33
2018-01-12T04:38:40.322Z,31.97
2018-01-12T04:41:08.230Z,22.30
2018-01-12T04:43:35.731Z,22.97
2018-01-12T04:46:03.272Z,21.20
2018-01-12T04:48:31.570Z,19.27
2018-01-12T04:50:59.270Z,21.43
2018-01-12T04:53:26.774Z,18.63
2018-01-12T04:55:54.694Z,17.23
2018-01-12T04:58:22.603Z,18.93
2018-01-12T05:00:50.908Z,21.87
2018-01-12T05:03:18.420Z,14.47
2018-01-12T05:05:45.933Z,23.00
2018-01-12T05:08:13.848Z,17.57
2018-01-12T05:10:41.369Z,21.23
2018-01-12T05:13:10.036Z,19.97
2018-01-12T05:15:37.548Z,18.23
2018-01-12T05:18:05.063Z,23.90
2018-01-12T05:20:32.968Z,23.10
2018-01-12T05:23:00.896Z,17.80
2018-01-12T05:25:28.794Z,25.03
2018-01-12T05:27:56.708Z,22.70
2018-01-12T05:30:24.206Z,22.23
2018-01-12T05:32:51.718Z,19.37
2018-01-12T05:35:19.615Z,21.27
2018-01-12T05:37:47.546Z,26.83
2018-01-12T05:40:15.040Z,20.17
2018-01-12T05:42:42.543Z,17.07
2018-01-12T05:45:10.466Z,17.33
2018-01-12T05:47:37.966Z,15.87
2018-01-12T05:50:05.875Z,21.30
2018-01-12T05:52:33.383Z,22.17
2018-01-12T05:55:01.294Z,16.60
2018-01-12T05:57:28.795Z,20.90
2018-01-12T05:59:56.827Z,20.87
2018-01-12T06:02:36.464Z,22.20
2018-01-12T06:05:16.290Z,17.97
2018-01-12T06:07:43.798Z,18.83
2018-01-12T06:10:11.738Z,17.17
2018-01-12T06:12:39.634Z,23.93
2018-01-12T06:15:07.522Z,21.43
2018-01-12T06:17:37.226Z,21.17
2018-01-12T06:20:04.810Z,20.67
2018-01-12T06:22:32.854Z,17.80
2018-01-12T06:25:00.860Z,17.83
2018-01-12T06:27:28.784Z,14.23
2018-01-12T06:29:56.789Z,23.13
2018-01-12T06:32:24.306Z,19.63
2018-01-12T06:34:52.198Z,22.57
2018-01-12T06:37:20.120Z,20.70
2018-01-12T06:39:48.391Z,21.97
2018-01-12T06:42:17.044Z,23.40
2018-01-12T06:44:44.952Z,27.43
2018-01-12T06:47:13.262Z,19.60
2018-01-12T06:49:41.153Z,23.93
2018-01-12T06:52:08.654Z,21.93
2018-01-12T06:54:36.931Z,17.50
2018-01-12T06:57:04.823Z,16.73
2018-01-12T06:59:32.350Z,16.10
2018-01-12T07:02:00.250Z,24.33
2018-01-12T07:04:28.159Z,22.20
2018-01-12T07:06:55.650Z,19.63
2018-01-12T07:09:23.576Z,23.07
2018-01-12T07:11:51.077Z,18.50
2018-01-12T07:14:19.002Z,16.10
2018-01-12T07:16:46.502Z,15.93
2018-01-12T07:19:14.398Z,16.27
2018-01-12T07:21:53.774Z,15.40
2018-01-12T07:24:21.679Z,16.87
2018-01-12T07:26:49.601Z,16.47
2018-01-12T07:29:17.489Z,22.53
2018-01-12T07:31:45.873Z,23.70
2018-01-12T07:34:13.838Z,17.53
2018-01-12T07:36:41.346Z,12.70
2018-01-12T07:39:08.840Z,20.00
2018-01-12T07:41:36.750Z,17.73
2018-01-12T07:44:04.253Z,15.97
2018-01-12T07:46:31.774Z,13.80
2018-01-12T07:48:59.690Z,18.47
2018-01-12T07:51:27.191Z,20.57
2018-01-12T07:53:54.709Z,18.77
2018-01-12T07:56:22.608Z,18.93
2018-01-12T07:58:50.894Z,13.53
2018-01-12T08:01:35.663Z,13.37
2018-01-12T08:04:03.579Z,15.50
2018-01-12T08:06:31.079Z,15.57
2018-01-12T08:08:58.982Z,16.43
2018-01-12T08:11:26.478Z,14.60
2018-01-12T08:13:54.402Z,17.83
2018-01-12T08:16:22.671Z,15.30
2018-01-12T08:18:50.187Z,14.30
2018-01-12T08:21:17.694Z,15.37
2018-01-12T08:23:45.218Z,18.57
2018-01-12T08:26:12.714Z,16.43
2018-01-12T08:28:40.203Z,16.43
2018-01-12T08:31:07.758Z,16.30
2018-01-12T08:33:35.666Z,18.90
2018-01-12T08:36:03.950Z,14.13
2018-01-12T08:38:31.843Z,17.17
2018-01-12T08:41:00.883Z,13.43
2018-01-12T08:43:29.878Z,16.53
2018-01-12T08:45:57.779Z,13.23
2018-01-12T08:48:25.674Z,13.17
2018-01-12T08:50:53.582Z,15.33
2018-01-12T08:53:21.474Z,16.83
2018-01-12T08:55:49.382Z,14.70
2018-01-12T08:58:16.874Z,17.80
2018-01-12T09:00:44.362Z,16.33
2018-01-12T09:03:12.285Z,14.57
2018-01-12T09:05:40.552Z,16.97
2018-01-12T09:08:08.090Z,11.37
2018-01-12T09:10:35.978Z,16.67
2018-01-12T09:13:03.490Z,22.67
2018-01-12T09:15:31.385Z,18.07
2018-01-12T09:18:00.205Z,15.87
2018-01-12T09:20:33.910Z,14.37
2018-01-12T09:23:13.562Z,13.07
2018-01-12T09:25:42.208Z,13.57
2018-01-12T09:28:10.240Z,12.27
2018-01-12T09:30:37.734Z,11.17
2018-01-12T09:33:05.263Z,13.93
2018-01-12T09:35:32.754Z,10.23
2018-01-12T09:38:12.141Z,13.70
2018-01-12T09:40:47.841Z,17.80
2018-01-12T09:43:16.118Z,24.07
2018-01-12T09:45:43.617Z,14.13
2018-01-12T09:48:26.200Z,20.57
2018-01-12T09:50:53.697Z,17.00
2018-01-12T09:53:21.591Z,12.73
2018-01-12T09:55:49.155Z,16.00
2018-01-12T09:58:17.051Z,16.40
2018-01-12T10:01:00.516Z,15.33
2018-01-12T10:03:28.062Z,13.20
2018-01-12T10:05:55.977Z,17.30
2018-01-12T10:08:26.197Z,13.23
2018-01-12T10:10:54.138Z,15.53
2018-01-12T10:13:21.726Z,19.53
2018-01-12T10:15:50.006Z,17.80
2018-01-12T10:18:26.027Z,18.30
2018-01-12T10:20:54.306Z,17.43
2018-01-12T10:23:21.798Z,14.60
2018-01-12T10:25:50.455Z,16.63
2018-01-12T10:28:18.789Z,12.77
2018-01-12T10:30:59.018Z,12.47
2018-01-12T10:33:31.770Z,11.83
2018-01-12T10:35:59.705Z,17.00
2018-01-12T10:38:27.626Z,10.97
2018-01-12T10:41:16.174Z,16.20
2018-01-12T10:43:43.679Z,13.50
2018-01-12T10:46:36.362Z,17.27
2018-01-12T10:49:09.186Z,10.97
2018-01-12T10:51:37.494Z,18.80
2018-01-12T10:54:05.007Z,14.20
2018-01-12T10:56:32.506Z,21.33
2018-01-12T10:59:00.032Z,14.73
2018-01-12T11:01:28.674Z,13.13
2018-01-12T11:03:56.611Z,15.03
2018-01-12T11:06:25.618Z,13.97
2018-01-12T11:08:53.550Z,19.10
2018-01-12T11:11:21.441Z,14.70
2018-01-12T11:13:49.362Z,17.37
2018-01-12T11:16:16.874Z,14.93
2018-01-12T11:18:44.397Z,16.00
2018-01-12T11:21:11.886Z,12.57
2018-01-12T11:23:39.797Z,15.10
2018-01-12T11:26:07.305Z,15.77
2018-01-12T11:28:35.225Z,13.07
2018-01-12T11:31:02.739Z,18.27
2018-01-12T11:33:30.634Z,21.33
2018-01-12T11:35:58.554Z,15.80
2018-01-12T11:38:26.443Z,13.67
2018-01-12T11:40:53.966Z,16.77
2018-01-12T11:43:21.902Z,19.13
2018-01-12T11:45:49.810Z,12.67
2018-01-12T11:48:17.325Z,18.17
2018-01-12T11:50:45.846Z,14.83
2018-01-12T11:53:13.369Z,16.27
2018-01-12T11:55:41.482Z,14.67
2018-01-12T11:58:09.378Z,13.70
2018-01-12T12:00:37.274Z,13.93
2018-01-12T12:03:04.798Z,17.87
2018-01-12T12:05:32.700Z,22.77
2018-01-12T12:08:00.618Z,16.10
2018-01-12T12:10:29.262Z,12.50
2018-01-12T12:12:57.253Z,18.50
2018-01-12T12:15:25.158Z,16.83
2018-01-12T12:17:53.082Z,18.17
2018-01-12T12:20:20.586Z,16.37
2018-01-12T12:22:48.087Z,16.20
2018-01-12T12:25:16.007Z,17.33
2018-01-12T12:27:43.918Z,14.70
2018-01-12T12:30:11.831Z,23.50
2018-01-12T12:32:39.714Z,17.13
2018-01-12T12:35:07.682Z,17.83
2018-01-12T12:37:35.585Z,24.43
2018-01-12T12:40:03.198Z,17.63
2018-01-12T12:42:31.102Z,25.67
2018-01-12T12:44:59.018Z,17.57
2018-01-12T12:47:27.269Z,18.27
2018-01-12T12:49:54.766Z,21.97
2018-01-12T12:52:23.421Z,14.77
2018-01-12T12:54:50.931Z,17.07
2018-01-12T12:57:18.842Z,13.30
2018-01-12T12:59:46.742Z,17.60
2018-01-12T13:02:14.259Z,17.53
2018-01-12T13:04:42.155Z,23.93
2018-01-12T13:07:09.681Z,15.03
2018-01-12T13:09:37.191Z,16.87
2018-01-12T13:12:05.111Z,13.17
2018-01-12T13:14:33.010Z,17.17
2018-01-12T13:17:00.506Z,22.03
2018-01-12T13:19:28.030Z,13.70
2018-01-12T13:21:55.930Z,16.07
2018-01-12T13:24:23.842Z,15.90
2018-01-12T13:26:51.334Z,20.13
2018-01-12T13:29:18.849Z,12.33
2018-01-12T13:31:46.751Z,24.03
2018-01-12T13:34:14.272Z,15.83
2018-01-12T13:36:42.162Z,17.97
2018-01-12T13:39:10.417Z,16.03
2018-01-12T13:41:37.923Z,14.53
2018-01-12T13:44:05.810Z,18.73
2018-01-12T13:46:33.721Z,15.03
2018-01-12T13:49:01.210Z,15.10
2018-01-12T13:51:28.731Z,16.83
2018-01-12T13:53:56.388Z,28.33
2018-01-12T13:56:23.898Z,15.43
2018-01-12T13:58:51.796Z,19.97
2018-01-12T14:01:19.726Z,15.77
2018-01-12T14:03:47.239Z,18.57
2018-01-12T14:06:14.770Z,16.90
2018-01-12T14:08:42.270Z,12.50
2018-01-12T14:11:09.762Z,16.83
2018-01-12T14:13:37.685Z,16.60
2018-01-12T14:16:05.190Z,16.50
2018-01-12T14:18:33.112Z,19.77
2018-01-12T14:21:00.998Z,22.93
2018-01-12T14:23:28.514Z,17.77
2018-01-12T14:25:56.011Z,18.10
2018-01-12T14:28:24.290Z,19.33
2018-01-12T14:30:52.187Z,16.80
2018-01-12T14:33:19.714Z,15.27
2018-01-12T14:35:47.614Z,18.00
2018-01-12T14:38:15.138Z,14.80
2018-01-12T14:40:44.139Z,18.77
2018-01-12T14:43:11.652Z,20.30
2018-01-12T14:45:39.174Z,14.13
2018-01-12T14:48:07.076Z,12.00
2018-01-12T14:50:34.627Z,17.93
2018-01-12T14:53:02.890Z,19.20
2018-01-12T14:55:30.414Z,17.10
2018-01-12T14:57:58.315Z,14.37
2018-01-12T15:00:26.283Z,22.90
2018-01-12T15:02:54.174Z,15.37
2018-01-12T15:05:22.174Z,19.87
2018-01-12T15:07:49.680Z,18.60
2018-01-12T15:10:17.282Z,17.30
2018-01-12T15:12:45.176Z,17.17
2018-01-12T15:15:13.077Z,13.13
2018-01-12T15:17:41.005Z,15.40
2018-01-12T15:20:09.286Z,19.80
2018-01-12T15:22:37.222Z,16.93
2018-01-12T15:25:05.122Z,17.07
2018-01-12T15:27:32.655Z,20.40
2018-01-12T15:30:00.559Z,18.10
2018-01-12T15:32:28.494Z,18.90
2018-01-12T15:34:56.390Z,15.17
2018-01-12T15:37:24.309Z,17.20
2018-01-12T15:39:52.590Z,17.87
2018-01-12T15:42:20.526Z,14.13
2018-01-12T15:44:48.054Z,15.47
2018-01-12T15:47:15.957Z,16.53
2018-01-12T15:49:44.047Z,16.57
2018-01-12T15:52:11.559Z,14.30
2018-01-12T15:54:39.122Z,22.70
2018-01-12T15:57:07.039Z,12.90
2018-01-12T15:59:34.955Z,17.67
2018-01-12T16:02:03.216Z,19.27
2018-01-12T16:04:31.130Z,17.20
2018-01-12T16:06:59.026Z,16.10
2018-01-12T16:09:26.938Z,20.13
2018-01-12T16:11:55.574Z,21.30
2018-01-12T16:14:23.830Z,20.43
2018-01-12T16:16:52.482Z,14.57
2018-01-12T16:19:19.982Z,20.23
2018-01-12T16:21:47.896Z,18.23
2018-01-12T16:24:15.399Z,14.90
2018-01-12T16:26:42.930Z,18.20
2018-01-12T16:29:10.826Z,18.40
2018-01-12T16:31:38.734Z,22.67
2018-01-12T16:34:06.632Z,13.70
2018-01-12T16:36:34.141Z,20.30
2018-01-12T16:39:01.672Z,18.00
2018-01-12T16:41:29.603Z,19.10
2018-01-12T16:43:57.507Z,22.07
2018-01-12T16:46:25.785Z,23.53
2018-01-12T16:48:53.306Z,22.10
2018-01-12T16:51:21.248Z,24.33
2018-01-12T16:53:48.824Z,21.53
2018-01-12T16:56:16.714Z,18.60
2018-01-12T16:58:44.619Z,19.47
2018-01-12T17:01:12.132Z,15.80
2018-01-12T17:03:39.659Z,23.43
2018-01-12T17:06:07.550Z,21.37
2018-01-12T17:08:35.469Z,29.90
2018-01-12T17:11:03.755Z,19.43
2018-01-12T17:13:31.327Z,25.57
2018-01-12T17:15:59.254Z,22.63
2018-01-12T17:18:26.784Z,22.90
2018-01-12T17:20:54.667Z,19.27
2018-01-12T17:23:23.693Z,22.33
2018-01-12T17:25:51.587Z,20.37
2018-01-12T17:28:19.109Z,22.07
2018-01-12T17:30:46.606Z,23.10
2018-01-12T17:33:14.106Z,25.23
2018-01-12T17:35:42.026Z,21.37
2018-01-12T17:38:09.928Z,27.00
2018-01-12T17:40:37.455Z,21.27
2018-01-12T17:43:05.001Z,21.83
2018-01-12T17:45:32.894Z,25.17
2018-01-12T17:48:00.790Z,21.80
2018-01-12T17:50:28.703Z,34.63
2018-01-12T17:52:56.621Z,24.50
2018-01-12T17:55:24.150Z,24.30
2018-01-12T17:57:52.043Z,20.63
2018-01-12T18:00:19.946Z,24.40
2018-01-12T18:02:47.458Z,21.67
2018-01-12T18:05:15.732Z,24.33
2018-01-12T18:07:43.260Z,25.97
2018-01-12T18:10:11.146Z,22.93
2018-01-12T18:12:38.770Z,22.50
2018-01-12T18:15:06.267Z,24.47
